sensor_id;sensor_type;location;lat;lon;timestamp;temperature;humidity
25320;DHT22;13256;49.012;8.610;2023-07-13T00:06:16;19.10;99.90
25320;DHT22;13256;49.012;8.610;2023-07-13T00:33:53;18.70;99.90
25320;DHT22;13256;49.012;8.610;2023-07-13T00:49:12;18.80;99.90
25320;DHT22;13256;49.012;8.610;2023-07-13T01:07:15;18.60;99.90
25320;DHT22;13256;49.012;8.610;2023-07-13T02:21:38;17.10;99.90
25320;DHT22;13256;49.012;8.610;2023-07-13T02:42:29;16.50;99.90
25320;DHT22;13256;49.012;8.610;2023-07-13T02:50:33;16.20;99.90
25320;DHT22;13256;49.012;8.610;2023-07-13T03:45:40;15.20;99.90
25320;DHT22;13256;49.012;8.610;2023-07-13T03:51:16;15.10;99.90
25320;DHT22;13256;49.012;8.610;2023-07-13T05:29:08;17.00;99.90
25320;DHT22;13256;49.012;8.610;2023-07-13T05:35:10;17.10;99.90
25320;DHT22;13256;49.012;8.610;2023-07-13T05:41:47;17.40;99.90
25320;DHT22;13256;49.012;8.610;2023-07-13T05:47:12;17.50;99.90
25320;DHT22;13256;49.012;8.610;2023-07-13T05:56:12;17.60;99.90
25320;DHT22;13256;49.012;8.610;2023-07-13T06:01:30;17.70;99.90
25320;DHT22;13256;49.012;8.610;2023-07-13T06:27:02;18.40;99.90
25320;DHT22;13256;49.012;8.610;2023-07-13T06:29:29;18.50;99.90
25320;DHT22;13256;49.012;8.610;2023-07-13T06:38:03;18.90;99.90
25320;DHT22;13256;49.012;8.610;2023-07-13T06:49:23;19.20;99.90
25320;DHT22;13256;49.012;8.610;2023-07-13T06:55:39;19.40;99.90
25320;DHT22;13256;49.012;8.610;2023-07-13T06:58:49;19.50;99.90
25320;DHT22;13256;49.012;8.610;2023-07-13T09:51:12;26.80;83.60
25320;DHT22;13256;49.012;8.610;2023-07-13T10:20:31;28.20;75.70
25320;DHT22;13256;49.012;8.610;2023-07-13T10:45:41;28.90;72.40
25320;DHT22;13256;49.012;8.610;2023-07-13T11:41:53;27.60;67.10
25320;DHT22;13256;49.012;8.610;2023-07-13T11:47:23;28.20;67.90
25320;DHT22;13256;49.012;8.610;2023-07-13T11:49:59;28.40;66.60
25320;DHT22;13256;49.012;8.610;2023-07-13T11:52:40;28.50;63.70
25320;DHT22;13256;49.012;8.610;2023-07-13T12:17:24;28.30;59.60
25320;DHT22;13256;49.012;8.610;2023-07-13T12:19:57;28.50;63.20
25320;DHT22;13256;49.012;8.610;2023-07-13T12:36:31;28.70;60.40
25320;DHT22;13256;49.012;8.610;2023-07-13T12:39:47;28.70;62.60
25320;DHT22;13256;49.012;8.610;2023-07-13T12:48:19;29.50;62.20
25320;DHT22;13256;49.012;8.610;2023-07-13T13:26:59;28.80;57.90
25320;DHT22;13256;49.012;8.610;2023-07-13T13:29:31;28.60;57.80
25320;DHT22;13256;49.012;8.610;2023-07-13T13:32:00;28.90;59.90
25320;DHT22;13256;49.012;8.610;2023-07-13T13:34:31;29.10;59.00
25320;DHT22;13256;49.012;8.610;2023-07-13T13:36:58;29.10;55.70
25320;DHT22;13256;49.012;8.610;2023-07-13T13:39:34;29.30;58.50
25320;DHT22;13256;49.012;8.610;2023-07-13T13:42:03;29.60;57.90
25320;DHT22;13256;49.012;8.610;2023-07-13T13:47:45;30.10;57.50
25320;DHT22;13256;49.012;8.610;2023-07-13T13:50:21;30.00;55.90
25320;DHT22;13256;49.012;8.610;2023-07-13T13:53:17;29.80;56.70
25320;DHT22;13256;49.012;8.610;2023-07-13T13:55:48;29.40;57.20
25320;DHT22;13256;49.012;8.610;2023-07-13T13:58:15;28.80;56.90
25320;DHT22;13256;49.012;8.610;2023-07-13T14:00:47;28.50;57.00
25320;DHT22;13256;49.012;8.610;2023-07-13T14:03:19;28.70;59.10
25320;DHT22;13256;49.012;8.610;2023-07-13T14:05:47;29.10;59.50
25320;DHT22;13256;49.012;8.610;2023-07-13T14:08:21;29.60;59.40
25320;DHT22;13256;49.012;8.610;2023-07-13T14:10:51;29.80;56.80
25320;DHT22;13256;49.012;8.610;2023-07-13T14:13:22;30.10;58.20
25320;DHT22;13256;49.012;8.610;2023-07-13T14:15:59;30.10;56.10
25320;DHT22;13256;49.012;8.610;2023-07-13T14:18:29;30.10;57.00
25320;DHT22;13256;49.012;8.610;2023-07-13T14:20:56;29.90;57.20
25320;DHT22;13256;49.012;8.610;2023-07-13T14:23:27;29.70;56.50
25320;DHT22;13256;49.012;8.610;2023-07-13T14:25:55;29.60;57.40
25320;DHT22;13256;49.012;8.610;2023-07-13T14:28:28;29.60;56.80
25320;DHT22;13256;49.012;8.610;2023-07-13T14:30:56;29.60;57.20
25320;DHT22;13256;49.012;8.610;2023-07-13T14:33:27;29.90;59.10
25320;DHT22;13256;49.012;8.610;2023-07-13T14:36:01;29.90;56.80
25320;DHT22;13256;49.012;8.610;2023-07-13T14:38:31;29.70;56.60
25320;DHT22;13256;49.012;8.610;2023-07-13T14:41:00;29.60;57.90
25320;DHT22;13256;49.012;8.610;2023-07-13T14:43:29;30.00;58.90
25320;DHT22;13256;49.012;8.610;2023-07-13T14:45:58;30.30;56.50
25320;DHT22;13256;49.012;8.610;2023-07-13T14:48:31;30.60;57.50
25320;DHT22;13256;49.012;8.610;2023-07-13T14:51:00;30.90;55.50
25320;DHT22;13256;49.012;8.610;2023-07-13T14:53:27;30.90;53.90
25320;DHT22;13256;49.012;8.610;2023-07-13T14:55:56;30.40;52.10
25320;DHT22;13256;49.012;8.610;2023-07-13T14:58:23;30.40;55.30
25320;DHT22;13256;49.012;8.610;2023-07-13T15:00:50;30.50;56.30
25320;DHT22;13256;49.012;8.610;2023-07-13T15:03:24;30.70;56.80
25320;DHT22;13256;49.012;8.610;2023-07-13T15:05:52;30.90;57.10
25320;DHT22;13256;49.012;8.610;2023-07-13T15:08:25;31.00;56.70
25320;DHT22;13256;49.012;8.610;2023-07-13T15:11:01;31.10;56.80
25320;DHT22;13256;49.012;8.610;2023-07-13T15:13:34;31.10;55.40
25320;DHT22;13256;49.012;8.610;2023-07-13T15:16:01;31.20;57.30
25320;DHT22;13256;49.012;8.610;2023-07-13T15:18:31;31.30;56.90
25320;DHT22;13256;49.012;8.610;2023-07-13T15:20:57;31.30;55.70
25320;DHT22;13256;49.012;8.610;2023-07-13T15:23:30;31.20;54.80
25320;DHT22;13256;49.012;8.610;2023-07-13T15:25:57;31.20;55.40
25320;DHT22;13256;49.012;8.610;2023-07-13T15:28:24;31.10;56.00
25320;DHT22;13256;49.012;8.610;2023-07-13T15:30:51;31.00;56.90
25320;DHT22;13256;49.012;8.610;2023-07-13T15:33:29;30.90;54.90
25320;DHT22;13256;49.012;8.610;2023-07-13T15:36:05;30.50;55.50
25320;DHT22;13256;49.012;8.610;2023-07-13T15:38:37;30.40;57.00
25320;DHT22;13256;49.012;8.610;2023-07-13T15:43:48;30.10;57.00
25320;DHT22;13256;49.012;8.610;2023-07-13T15:46:23;30.10;58.40
25320;DHT22;13256;49.012;8.610;2023-07-13T15:48:53;30.20;56.20
25320;DHT22;13256;49.012;8.610;2023-07-13T15:51:28;30.20;56.20
25320;DHT22;13256;49.012;8.610;2023-07-13T15:54:04;29.80;56.10
25320;DHT22;13256;49.012;8.610;2023-07-13T15:56:37;29.50;57.70
25320;DHT22;13256;49.012;8.610;2023-07-13T15:59:14;29.30;57.70
25320;DHT22;13256;49.012;8.610;2023-07-13T16:01:44;29.30;58.30
25320;DHT22;13256;49.012;8.610;2023-07-13T16:04:15;29.30;58.40
25320;DHT22;13256;49.012;8.610;2023-07-13T16:06:45;29.20;57.50
25320;DHT22;13256;49.012;8.610;2023-07-13T16:09:19;29.10;58.10
25320;DHT22;13256;49.012;8.610;2023-07-13T16:11:49;29.10;59.00
25320;DHT22;13256;49.012;8.610;2023-07-13T16:14:17;29.10;58.70
25320;DHT22;13256;49.012;8.610;2023-07-13T16:16:48;29.00;57.90
25320;DHT22;13256;49.012;8.610;2023-07-13T16:19:20;28.90;58.70
25320;DHT22;13256;49.012;8.610;2023-07-13T16:22:03;28.80;59.60
25320;DHT22;13256;49.012;8.610;2023-07-13T16:24:32;28.70;60.40
25320;DHT22;13256;49.012;8.610;2023-07-13T16:27:03;28.60;59.30
25320;DHT22;13256;49.012;8.610;2023-07-13T16:29:31;28.50;59.30
25320;DHT22;13256;49.012;8.610;2023-07-13T16:34:37;27.70;58.90
25320;DHT22;13256;49.012;8.610;2023-07-13T16:37:22;27.50;62.10
25320;DHT22;13256;49.012;8.610;2023-07-13T16:40:26;27.60;59.90
25320;DHT22;13256;49.012;8.610;2023-07-13T16:42:56;27.70;60.20
25320;DHT22;13256;49.012;8.610;2023-07-13T16:45:32;27.70;59.90
25320;DHT22;13256;49.012;8.610;2023-07-13T16:48:13;27.70;59.90
25320;DHT22;13256;49.012;8.610;2023-07-13T16:50:44;27.70;59.20
25320;DHT22;13256;49.012;8.610;2023-07-13T16:53:26;27.70;59.80
25320;DHT22;13256;49.012;8.610;2023-07-13T16:59:01;27.70;59.20
25320;DHT22;13256;49.012;8.610;2023-07-13T17:05:13;27.60;59.10
25320;DHT22;13256;49.012;8.610;2023-07-13T17:07:41;27.50;60.20
25320;DHT22;13256;49.012;8.610;2023-07-13T17:10:21;27.30;60.00
25320;DHT22;13256;49.012;8.610;2023-07-13T17:13:05;27.20;61.20
25320;DHT22;13256;49.012;8.610;2023-07-13T17:15:35;27.20;61.00
25320;DHT22;13256;49.012;8.610;2023-07-13T17:18:04;27.10;60.80
25320;DHT22;13256;49.012;8.610;2023-07-13T17:20:44;27.00;61.30
25320;DHT22;13256;49.012;8.610;2023-07-13T17:23:43;26.90;61.80
25320;DHT22;13256;49.012;8.610;2023-07-13T17:26:10;26.90;61.60
25320;DHT22;13256;49.012;8.610;2023-07-13T17:28:41;26.80;61.80
25320;DHT22;13256;49.012;8.610;2023-07-13T17:31:12;26.70;61.90
25320;DHT22;13256;49.012;8.610;2023-07-13T17:34:15;26.70;62.10
25320;DHT22;13256;49.012;8.610;2023-07-13T17:36:52;26.60;62.30
25320;DHT22;13256;49.012;8.610;2023-07-13T17:43:12;26.50;64.20
25320;DHT22;13256;49.012;8.610;2023-07-13T18:00:25;26.20;63.40
25320;DHT22;13256;49.012;8.610;2023-07-13T18:02:56;26.20;63.50
25320;DHT22;13256;49.012;8.610;2023-07-13T18:05:25;26.10;63.20
25320;DHT22;13256;49.012;8.610;2023-07-13T18:07:55;26.10;63.70
25320;DHT22;13256;49.012;8.610;2023-07-13T18:10:51;26.10;64.40
25320;DHT22;13256;49.012;8.610;2023-07-13T18:13:19;26.00;64.10
25320;DHT22;13256;49.012;8.610;2023-07-13T18:15:48;25.90;64.40
25320;DHT22;13256;49.012;8.610;2023-07-13T18:18:17;25.90;65.00
25320;DHT22;13256;49.012;8.610;2023-07-13T18:20:45;25.80;64.50
25320;DHT22;13256;49.012;8.610;2023-07-13T18:23:23;25.80;64.70
25320;DHT22;13256;49.012;8.610;2023-07-13T18:25:52;25.70;65.30
25320;DHT22;13256;49.012;8.610;2023-07-13T18:28:25;25.60;65.80
25320;DHT22;13256;49.012;8.610;2023-07-13T18:30:57;25.60;66.00
25320;DHT22;13256;49.012;8.610;2023-07-13T18:33:52;25.60;65.50
25320;DHT22;13256;49.012;8.610;2023-07-13T18:36:25;25.50;65.60
25320;DHT22;13256;49.012;8.610;2023-07-13T18:38:57;25.50;65.60
25320;DHT22;13256;49.012;8.610;2023-07-13T18:41:27;25.50;65.80
25320;DHT22;13256;49.012;8.610;2023-07-13T18:43:55;25.40;65.80
25320;DHT22;13256;49.012;8.610;2023-07-13T18:46:29;25.30;65.70
25320;DHT22;13256;49.012;8.610;2023-07-13T18:49:08;25.30;66.20
25320;DHT22;13256;49.012;8.610;2023-07-13T18:51:39;25.20;66.20
25320;DHT22;13256;49.012;8.610;2023-07-13T18:54:13;25.20;66.80
25320;DHT22;13256;49.012;8.610;2023-07-13T18:56:42;25.10;66.60
25320;DHT22;13256;49.012;8.610;2023-07-13T18:59:11;25.10;67.10
25320;DHT22;13256;49.012;8.610;2023-07-13T19:01:41;25.00;67.20
25320;DHT22;13256;49.012;8.610;2023-07-13T19:04:27;24.90;68.30
25320;DHT22;13256;49.012;8.610;2023-07-13T19:06:57;24.80;68.60
25320;DHT22;13256;49.012;8.610;2023-07-13T19:09:26;24.80;68.80
25320;DHT22;13256;49.012;8.610;2023-07-13T19:11:59;24.70;68.70
25320;DHT22;13256;49.012;8.610;2023-07-13T19:14:48;24.70;68.60
25320;DHT22;13256;49.012;8.610;2023-07-13T19:17:27;24.60;69.00
25320;DHT22;13256;49.012;8.610;2023-07-13T19:20:02;24.50;69.00
25320;DHT22;13256;49.012;8.610;2023-07-13T19:26:32;24.40;69.70
25320;DHT22;13256;49.012;8.610;2023-07-13T19:29:08;24.20;70.20
25320;DHT22;13256;49.012;8.610;2023-07-13T19:35:00;24.20;72.50
25320;DHT22;13256;49.012;8.610;2023-07-13T19:37:28;24.10;72.80
25320;DHT22;13256;49.012;8.610;2023-07-13T19:40:28;24.10;73.20
25320;DHT22;13256;49.012;8.610;2023-07-13T19:42:58;24.10;73.50
25320;DHT22;13256;49.012;8.610;2023-07-13T19:45:42;24.00;74.30
25320;DHT22;13256;49.012;8.610;2023-07-13T19:48:18;23.80;74.80
25320;DHT22;13256;49.012;8.610;2023-07-13T20:11:55;21.80;85.40
25320;DHT22;13256;49.012;8.610;2023-07-13T20:14:54;21.50;87.20
25320;DHT22;13256;49.012;8.610;2023-07-13T20:20:48;21.10;88.80
25320;DHT22;13256;49.012;8.610;2023-07-13T20:23:18;20.90;90.00
25320;DHT22;13256;49.012;8.610;2023-07-13T20:26:15;20.80;90.30
25320;DHT22;13256;49.012;8.610;2023-07-13T20:28:44;20.60;90.90
25320;DHT22;13256;49.012;8.610;2023-07-13T20:31:41;20.40;91.30
25320;DHT22;13256;49.012;8.610;2023-07-13T20:34:22;20.30;91.50
25320;DHT22;13256;49.012;8.610;2023-07-13T20:37:28;20.20;92.00
25320;DHT22;13256;49.012;8.610;2023-07-13T20:40:01;20.20;92.10
25320;DHT22;13256;49.012;8.610;2023-07-13T20:42:30;20.10;92.40
25320;DHT22;13256;49.012;8.610;2023-07-13T20:45:01;20.00;92.60
25320;DHT22;13256;49.012;8.610;2023-07-13T20:47:30;19.80;93.00
25320;DHT22;13256;49.012;8.610;2023-07-13T20:56:58;19.60;94.10
25320;DHT22;13256;49.012;8.610;2023-07-13T21:00:01;19.60;94.30
25320;DHT22;13256;49.012;8.610;2023-07-13T21:17:51;18.60;98.30
25320;DHT22;13256;49.012;8.610;2023-07-13T21:20:41;18.50;99.00
25320;DHT22;13256;49.012;8.610;2023-07-13T21:23:45;18.40;99.70
25320;DHT22;13256;49.012;8.610;2023-07-13T21:27:08;18.40;99.90
25320;DHT22;13256;49.012;8.610;2023-07-13T21:32:57;18.50;99.90
25320;DHT22;13256;49.012;8.610;2023-07-13T21:36:05;18.40;99.90
25320;DHT22;13256;49.012;8.610;2023-07-13T21:39:15;18.40;99.90
25320;DHT22;13256;49.012;8.610;2023-07-13T21:43:03;18.30;99.90
25320;DHT22;13256;49.012;8.610;2023-07-13T21:47:10;18.20;99.90
25320;DHT22;13256;49.012;8.610;2023-07-13T21:50:07;18.00;99.90
25320;DHT22;13256;49.012;8.610;2023-07-13T21:53:31;18.00;99.90
25320;DHT22;13256;49.012;8.610;2023-07-13T22:03:30;17.80;99.90
25320;DHT22;13256;49.012;8.610;2023-07-13T22:06:04;17.60;99.90
25320;DHT22;13256;49.012;8.610;2023-07-13T22:09:20;17.50;99.90
25320;DHT22;13256;49.012;8.610;2023-07-13T22:12:15;17.50;99.90
25320;DHT22;13256;49.012;8.610;2023-07-13T22:14:47;17.40;99.90
25320;DHT22;13256;49.012;8.610;2023-07-13T22:17:13;17.30;99.90
25320;DHT22;13256;49.012;8.610;2023-07-13T22:20:16;17.30;99.90
25320;DHT22;13256;49.012;8.610;2023-07-13T22:22:48;17.30;99.90
25320;DHT22;13256;49.012;8.610;2023-07-13T22:25:18;17.30;99.90
25320;DHT22;13256;49.012;8.610;2023-07-13T22:27:46;17.20;99.90
25320;DHT22;13256;49.012;8.610;2023-07-13T22:30:21;17.20;99.90
25320;DHT22;13256;49.012;8.610;2023-07-13T22:32:50;17.10;99.90
25320;DHT22;13256;49.012;8.610;2023-07-13T22:35:27;17.10;99.90
25320;DHT22;13256;49.012;8.610;2023-07-13T22:37:54;17.10;99.90
25320;DHT22;13256;49.012;8.610;2023-07-13T22:43:52;17.10;99.90
25320;DHT22;13256;49.012;8.610;2023-07-13T22:46:27;17.10;99.90
25320;DHT22;13256;49.012;8.610;2023-07-13T22:49:21;17.00;99.90
25320;DHT22;13256;49.012;8.610;2023-07-13T22:51:52;17.00;99.90
25320;DHT22;13256;49.012;8.610;2023-07-13T22:54:48;16.90;99.90
25320;DHT22;13256;49.012;8.610;2023-07-13T22:57:19;16.90;99.90
25320;DHT22;13256;49.012;8.610;2023-07-13T22:59:50;16.90;99.90
25320;DHT22;13256;49.012;8.610;2023-07-13T23:02:20;16.80;99.90
25320;DHT22;13256;49.012;8.610;2023-07-13T23:04:57;16.70;99.90
25320;DHT22;13256;49.012;8.610;2023-07-13T23:07:25;16.60;99.90
25320;DHT22;13256;49.012;8.610;2023-07-13T23:09:52;16.60;99.90
25320;DHT22;13256;49.012;8.610;2023-07-13T23:12:40;16.60;99.90
25320;DHT22;13256;49.012;8.610;2023-07-13T23:15:22;16.60;99.90
25320;DHT22;13256;49.012;8.610;2023-07-13T23:17:50;16.50;99.90
25320;DHT22;13256;49.012;8.610;2023-07-13T23:20:26;16.40;99.90
25320;DHT22;13256;49.012;8.610;2023-07-13T23:22:54;16.40;99.90
25320;DHT22;13256;49.012;8.610;2023-07-13T23:25:25;16.30;99.90
25320;DHT22;13256;49.012;8.610;2023-07-13T23:27:55;16.20;99.90
25320;DHT22;13256;49.012;8.610;2023-07-13T23:30:31;16.10;99.90
25320;DHT22;13256;49.012;8.610;2023-07-13T23:33:12;16.20;99.90
25320;DHT22;13256;49.012;8.610;2023-07-13T23:35:46;16.20;99.90
25320;DHT22;13256;49.012;8.610;2023-07-13T23:38:17;16.20;99.90
25320;DHT22;13256;49.012;8.610;2023-07-13T23:40:47;16.10;99.90
25320;DHT22;13256;49.012;8.610;2023-07-13T23:43:17;16.20;99.90
25320;DHT22;13256;49.012;8.610;2023-07-13T23:45:45;16.10;99.90
25320;DHT22;13256;49.012;8.610;2023-07-13T23:51:39;16.20;99.90
25320;DHT22;13256;49.012;8.610;2023-07-13T23:54:11;16.20;99.90
25320;DHT22;13256;49.012;8.610;2023-07-13T23:57:08;16.20;99.90
25320;DHT22;13256;49.012;8.610;2023-07-13T23:59:38;16.30;99.90
